sensor_id;sensor_type;location;lat;lon;timestamp;P1;durP1;ratioP1;P2;durP2;ratioP2
22284;SDS011;11311;52.192;20.900;2022-08-01T00:01:31;8.48;;;4.85;;
22284;SDS011;11311;52.192;20.900;2022-08-01T00:04:01;6.75;;;5.13;;
22284;SDS011;11311;52.192;20.900;2022-08-01T00:06:29;11.13;;;5.07;;
22284;SDS011;11311;52.192;20.900;2022-08-01T00:08:58;6.82;;;4.82;;
22284;SDS011;11311;52.192;20.900;2022-08-01T00:11:28;9.55;;;4.93;;
22284;SDS011;11311;52.192;20.900;2022-08-01T00:13:57;8.68;;;4.85;;
22284;SDS011;11311;52.192;20.900;2022-08-01T00:16:25;12.68;;;5.50;;
22284;SDS011;11311;52.192;20.900;2022-08-01T00:18:54;12.27;;;5.03;;
22284;SDS011;11311;52.192;20.900;2022-08-01T00:21:23;9.88;;;5.68;;
22284;SDS011;11311;52.192;20.900;2022-08-01T00:23:51;7.07;;;5.00;;
22284;SDS011;11311;52.192;20.900;2022-08-01T00:26:20;7.40;;;5.45;;
22284;SDS011;11311;52.192;20.900;2022-08-01T00:28:50;9.57;;;6.07;;
22284;SDS011;11311;52.192;20.900;2022-08-01T00:31:18;11.65;;;4.88;;
22284;SDS011;11311;52.192;20.900;2022-08-01T00:33:47;11.60;;;5.72;;
22284;SDS011;11311;52.192;20.900;2022-08-01T00:36:15;12.65;;;5.88;;
22284;SDS011;11311;52.192;20.900;2022-08-01T00:38:44;11.63;;;6.10;;
22284;SDS011;11311;52.192;20.900;2022-08-01T00:41:13;12.45;;;5.55;;
22284;SDS011;11311;52.192;20.900;2022-08-01T00:43:41;11.43;;;5.55;;
22284;SDS011;11311;52.192;20.900;2022-08-01T00:46:11;10.40;;;6.72;;
22284;SDS011;11311;52.192;20.900;2022-08-01T00:48:40;10.35;;;6.18;;
22284;SDS011;11311;52.192;20.900;2022-08-01T00:51:08;5.72;;;5.22;;
22284;SDS011;11311;52.192;20.900;2022-08-01T00:53:38;15.25;;;5.72;;
22284;SDS011;11311;52.192;20.900;2022-08-01T00:56:19;10.57;;;6.20;;
22284;SDS011;11311;52.192;20.900;2022-08-01T00:58:47;8.00;;;7.13;;
22284;SDS011;11311;52.192;20.900;2022-08-01T01:01:18;11.38;;;6.18;;
22284;SDS011;11311;52.192;20.900;2022-08-01T01:03:49;14.30;;;6.57;;
22284;SDS011;11311;52.192;20.900;2022-08-01T01:06:31;9.85;;;6.30;;
22284;SDS011;11311;52.192;20.900;2022-08-01T01:09:11;15.20;;;5.93;;
22284;SDS011;11311;52.192;20.900;2022-08-01T01:12:02;9.70;;;5.68;;
22284;SDS011;11311;52.192;20.900;2022-08-01T01:14:39;13.65;;;6.70;;
22284;SDS011;11311;52.192;20.900;2022-08-01T01:17:16;10.50;;;6.50;;
22284;SDS011;11311;52.192;20.900;2022-08-01T01:20:10;13.23;;;6.55;;
22284;SDS011;11311;52.192;20.900;2022-08-01T01:22:50;9.45;;;6.28;;
22284;SDS011;11311;52.192;20.900;2022-08-01T01:25:33;9.93;;;7.22;;
22284;SDS011;11311;52.192;20.900;2022-08-01T01:28:10;14.57;;;7.55;;
22284;SDS011;11311;52.192;20.900;2022-08-01T01:30:45;16.48;;;6.53;;
22284;SDS011;11311;52.192;20.900;2022-08-01T01:33:16;22.67;;;7.68;;
22284;SDS011;11311;52.192;20.900;2022-08-01T01:35:47;15.45;;;7.07;;
22284;SDS011;11311;52.192;20.900;2022-08-01T01:38:20;12.55;;;7.38;;
22284;SDS011;11311;52.192;20.900;2022-08-01T01:40:50;16.00;;;6.50;;
22284;SDS011;11311;52.192;20.900;2022-08-01T01:43:20;11.50;;;7.28;;
22284;SDS011;11311;52.192;20.900;2022-08-01T01:46:01;12.30;;;7.18;;
22284;SDS011;11311;52.192;20.900;2022-08-01T01:48:31;13.32;;;6.57;;
22284;SDS011;11311;52.192;20.900;2022-08-01T01:51:00;9.13;;;5.97;;
22284;SDS011;11311;52.192;20.900;2022-08-01T01:53:29;8.07;;;6.07;;
22284;SDS011;11311;52.192;20.900;2022-08-01T01:56:00;13.95;;;6.93;;
22284;SDS011;11311;52.192;20.900;2022-08-01T01:58:29;20.33;;;8.55;;
22284;SDS011;11311;52.192;20.900;2022-08-01T02:01:00;16.98;;;7.35;;
22284;SDS011;11311;52.192;20.900;2022-08-01T02:03:40;11.25;;;6.55;;
22284;SDS011;11311;52.192;20.900;2022-08-01T02:06:10;13.15;;;5.97;;
22284;SDS011;11311;52.192;20.900;2022-08-01T02:08:40;12.25;;;6.85;;
22284;SDS011;11311;52.192;20.900;2022-08-01T02:11:10;16.33;;;7.20;;
22284;SDS011;11311;52.192;20.900;2022-08-01T02:13:51;14.02;;;7.07;;
22284;SDS011;11311;52.192;20.900;2022-08-01T02:16:24;21.17;;;7.05;;
22284;SDS011;11311;52.192;20.900;2022-08-01T02:18:55;12.40;;;7.93;;
22284;SDS011;11311;52.192;20.900;2022-08-01T02:21:25;12.95;;;7.07;;
22284;SDS011;11311;52.192;20.900;2022-08-01T02:23:58;10.80;;;7.90;;
22284;SDS011;11311;52.192;20.900;2022-08-01T02:26:42;9.70;;;8.10;;
22284;SDS011;11311;52.192;20.900;2022-08-01T02:29:23;11.75;;;7.00;;
22284;SDS011;11311;52.192;20.900;2022-08-01T02:31:55;19.27;;;8.38;;
22284;SDS011;11311;52.192;20.900;2022-08-01T02:34:24;12.40;;;8.75;;
22284;SDS011;11311;52.192;20.900;2022-08-01T02:36:59;17.10;;;8.35;;
22284;SDS011;11311;52.192;20.900;2022-08-01T02:39:28;15.52;;;7.90;;
22284;SDS011;11311;52.192;20.900;2022-08-01T02:42:00;11.25;;;7.57;;
22284;SDS011;11311;52.192;20.900;2022-08-01T02:44:33;15.35;;;7.63;;
22284;SDS011;11311;52.192;20.900;2022-08-01T02:47:06;15.48;;;7.80;;
22284;SDS011;11311;52.192;20.900;2022-08-01T02:49:38;9.98;;;6.90;;
22284;SDS011;11311;52.192;20.900;2022-08-01T02:52:10;9.48;;;6.70;;
22284;SDS011;11311;52.192;20.900;2022-08-01T02:54:47;13.70;;;6.65;;
22284;SDS011;11311;52.192;20.900;2022-08-01T02:57:18;15.20;;;7.30;;
22284;SDS011;11311;52.192;20.900;2022-08-01T02:59:55;16.77;;;6.80;;
22284;SDS011;11311;52.192;20.900;2022-08-01T03:02:27;14.38;;;7.45;;
22284;SDS011;11311;52.192;20.900;2022-08-01T03:04:57;17.63;;;8.10;;
22284;SDS011;11311;52.192;20.900;2022-08-01T03:07:25;19.42;;;7.47;;
22284;SDS011;11311;52.192;20.900;2022-08-01T03:10:00;13.63;;;7.05;;
22284;SDS011;11311;52.192;20.900;2022-08-01T03:12:30;16.58;;;7.68;;
22284;SDS011;11311;52.192;20.900;2022-08-01T03:15:02;10.15;;;8.25;;
22284;SDS011;11311;52.192;20.900;2022-08-01T03:17:34;13.50;;;9.20;;
22284;SDS011;11311;52.192;20.900;2022-08-01T03:20:04;13.70;;;8.48;;
22284;SDS011;11311;52.192;20.900;2022-08-01T03:22:35;19.70;;;9.02;;
22284;SDS011;11311;52.192;20.900;2022-08-01T03:25:05;14.10;;;8.93;;
22284;SDS011;11311;52.192;20.900;2022-08-01T03:27:35;14.13;;;9.00;;
22284;SDS011;11311;52.192;20.900;2022-08-01T03:30:05;11.77;;;8.95;;
22284;SDS011;11311;52.192;20.900;2022-08-01T03:32:36;13.60;;;8.60;;
22284;SDS011;11311;52.192;20.900;2022-08-01T03:35:05;16.08;;;9.63;;
22284;SDS011;11311;52.192;20.900;2022-08-01T03:37:34;14.45;;;8.80;;
22284;SDS011;11311;52.192;20.900;2022-08-01T03:40:28;16.45;;;9.13;;
22284;SDS011;11311;52.192;20.900;2022-08-01T03:43:00;11.43;;;10.13;;
22284;SDS011;11311;52.192;20.900;2022-08-01T03:45:31;12.90;;;9.50;;
22284;SDS011;11311;52.192;20.900;2022-08-01T03:48:06;14.25;;;9.48;;
22284;SDS011;11311;52.192;20.900;2022-08-01T03:50:37;11.35;;;9.45;;
22284;SDS011;11311;52.192;20.900;2022-08-01T03:53:08;10.63;;;9.60;;
22284;SDS011;11311;52.192;20.900;2022-08-01T03:55:37;16.55;;;10.25;;
22284;SDS011;11311;52.192;20.900;2022-08-01T03:58:07;11.55;;;10.30;;
22284;SDS011;11311;52.192;20.900;2022-08-01T04:00:37;14.13;;;9.50;;
22284;SDS011;11311;52.192;20.900;2022-08-01T04:03:08;22.92;;;11.23;;
22284;SDS011;11311;52.192;20.900;2022-08-01T04:05:37;16.75;;;11.57;;
22284;SDS011;11311;52.192;20.900;2022-08-01T04:08:08;13.55;;;9.88;;
22284;SDS011;11311;52.192;20.900;2022-08-01T04:10:37;14.30;;;10.93;;
22284;SDS011;11311;52.192;20.900;2022-08-01T04:13:06;18.50;;;9.98;;
22284;SDS011;11311;52.192;20.900;2022-08-01T04:15:35;13.05;;;10.70;;
22284;SDS011;11311;52.192;20.900;2022-08-01T04:18:04;13.35;;;9.85;;
22284;SDS011;11311;52.192;20.900;2022-08-01T04:20:35;11.43;;;9.00;;
22284;SDS011;11311;52.192;20.900;2022-08-01T04:23:03;15.25;;;9.80;;
22284;SDS011;11311;52.192;20.900;2022-08-01T04:25:32;12.48;;;9.90;;
22284;SDS011;11311;52.192;20.900;2022-08-01T04:28:02;16.65;;;9.65;;
22284;SDS011;11311;52.192;20.900;2022-08-01T04:30:33;13.32;;;9.45;;
22284;SDS011;11311;52.192;20.900;2022-08-01T04:33:03;13.07;;;9.30;;
22284;SDS011;11311;52.192;20.900;2022-08-01T04:35:34;17.73;;;9.70;;
22284;SDS011;11311;52.192;20.900;2022-08-01T04:38:25;10.82;;;8.70;;
22284;SDS011;11311;52.192;20.900;2022-08-01T04:40:55;13.77;;;9.83;;
22284;SDS011;11311;52.192;20.900;2022-08-01T04:43:29;11.55;;;9.25;;
22284;SDS011;11311;52.192;20.900;2022-08-01T04:45:59;17.00;;;9.23;;
22284;SDS011;11311;52.192;20.900;2022-08-01T04:48:31;12.35;;;9.40;;
22284;SDS011;11311;52.192;20.900;2022-08-01T04:51:01;10.37;;;9.27;;
22284;SDS011;11311;52.192;20.900;2022-08-01T04:53:30;11.80;;;9.75;;
22284;SDS011;11311;52.192;20.900;2022-08-01T04:55:59;10.40;;;9.25;;
22284;SDS011;11311;52.192;20.900;2022-08-01T04:58:27;17.55;;;10.02;;
22284;SDS011;11311;52.192;20.900;2022-08-01T05:00:56;19.52;;;10.98;;
22284;SDS011;11311;52.192;20.900;2022-08-01T05:03:25;12.75;;;11.45;;
22284;SDS011;11311;52.192;20.900;2022-08-01T05:05:54;16.08;;;10.98;;
22284;SDS011;11311;52.192;20.900;2022-08-01T05:08:24;12.07;;;10.63;;
22284;SDS011;11311;52.192;20.900;2022-08-01T05:10:52;16.20;;;12.18;;
22284;SDS011;11311;52.192;20.900;2022-08-01T05:13:21;17.33;;;13.00;;
22284;SDS011;11311;52.192;20.900;2022-08-01T05:15:50;24.02;;;13.23;;
22284;SDS011;11311;52.192;20.900;2022-08-01T05:18:19;14.38;;;13.00;;
22284;SDS011;11311;52.192;20.900;2022-08-01T05:20:54;15.15;;;12.13;;
22284;SDS011;11311;52.192;20.900;2022-08-01T05:23:24;14.85;;;11.32;;
22284;SDS011;11311;52.192;20.900;2022-08-01T05:26:09;14.70;;;11.57;;
22284;SDS011;11311;52.192;20.900;2022-08-01T05:28:40;15.73;;;10.48;;
22284;SDS011;11311;52.192;20.900;2022-08-01T05:31:09;12.52;;;10.25;;
22284;SDS011;11311;52.192;20.900;2022-08-01T05:33:38;16.52;;;9.75;;
22284;SDS011;11311;52.192;20.900;2022-08-01T05:36:07;18.75;;;9.40;;
22284;SDS011;11311;52.192;20.900;2022-08-01T05:38:37;12.18;;;9.88;;
22284;SDS011;11311;52.192;20.900;2022-08-01T05:41:06;11.40;;;9.00;;
22284;SDS011;11311;52.192;20.900;2022-08-01T05:43:34;13.80;;;8.95;;
22284;SDS011;11311;52.192;20.900;2022-08-01T05:46:03;10.98;;;9.20;;
22284;SDS011;11311;52.192;20.900;2022-08-01T05:48:32;16.52;;;8.55;;
22284;SDS011;11311;52.192;20.900;2022-08-01T05:51:01;14.07;;;9.15;;
22284;SDS011;11311;52.192;20.900;2022-08-01T05:53:30;10.82;;;9.73;;
22284;SDS011;11311;52.192;20.900;2022-08-01T05:56:02;15.25;;;8.23;;
22284;SDS011;11311;52.192;20.900;2022-08-01T06:01:00;13.23;;;9.65;;
22284;SDS011;11311;52.192;20.900;2022-08-01T06:03:28;12.10;;;9.10;;
22284;SDS011;11311;52.192;20.900;2022-08-01T06:05:58;10.13;;;7.43;;
22284;SDS011;11311;52.192;20.900;2022-08-01T06:08:27;10.02;;;7.78;;
22284;SDS011;11311;52.192;20.900;2022-08-01T06:10:56;7.30;;;6.20;;
22284;SDS011;11311;52.192;20.900;2022-08-01T06:13:26;17.92;;;8.50;;
22284;SDS011;11311;52.192;20.900;2022-08-01T06:15:55;10.98;;;7.95;;
22284;SDS011;11311;52.192;20.900;2022-08-01T06:18:24;9.68;;;8.30;;
22284;SDS011;11311;52.192;20.900;2022-08-01T06:20:53;8.88;;;6.28;;
22284;SDS011;11311;52.192;20.900;2022-08-01T06:23:22;5.95;;;5.35;;
22284;SDS011;11311;52.192;20.900;2022-08-01T06:25:58;7.50;;;5.13;;
22284;SDS011;11311;52.192;20.900;2022-08-01T06:28:29;5.13;;;4.22;;
22284;SDS011;11311;52.192;20.900;2022-08-01T06:33:27;5.28;;;4.45;;
22284;SDS011;11311;52.192;20.900;2022-08-01T06:35:56;8.20;;;3.80;;
22284;SDS011;11311;52.192;20.900;2022-08-01T06:38:24;5.10;;;3.85;;
22284;SDS011;11311;52.192;20.900;2022-08-01T06:40:53;5.68;;;3.78;;
22284;SDS011;11311;52.192;20.900;2022-08-01T06:43:21;3.78;;;3.20;;
22284;SDS011;11311;52.192;20.900;2022-08-01T06:45:51;8.57;;;3.90;;
22284;SDS011;11311;52.192;20.900;2022-08-01T06:48:20;7.88;;;3.90;;
22284;SDS011;11311;52.192;20.900;2022-08-01T06:50:49;6.50;;;3.78;;
22284;SDS011;11311;52.192;20.900;2022-08-01T06:53:35;4.70;;;3.25;;
22284;SDS011;11311;52.192;20.900;2022-08-01T06:56:04;6.67;;;3.60;;
22284;SDS011;11311;52.192;20.900;2022-08-01T06:58:33;5.20;;;3.00;;
22284;SDS011;11311;52.192;20.900;2022-08-01T07:01:04;5.60;;;3.25;;
22284;SDS011;11311;52.192;20.900;2022-08-01T07:03:34;9.10;;;4.03;;
22284;SDS011;11311;52.192;20.900;2022-08-01T07:06:21;3.63;;;3.28;;
22284;SDS011;11311;52.192;20.900;2022-08-01T07:08:50;5.57;;;3.67;;
22284;SDS011;11311;52.192;20.900;2022-08-01T07:11:20;6.45;;;3.33;;
22284;SDS011;11311;52.192;20.900;2022-08-01T07:13:49;5.20;;;3.30;;
22284;SDS011;11311;52.192;20.900;2022-08-01T07:16:19;5.30;;;3.10;;
22284;SDS011;11311;52.192;20.900;2022-08-01T07:18:49;6.43;;;3.00;;
22284;SDS011;11311;52.192;20.900;2022-08-01T07:21:18;12.80;;;5.18;;
22284;SDS011;11311;52.192;20.900;2022-08-01T07:24:07;4.40;;;2.28;;
22284;SDS011;11311;52.192;20.900;2022-08-01T07:26:41;2.88;;;2.55;;
22284;SDS011;11311;52.192;20.900;2022-08-01T07:29:20;4.80;;;2.70;;
22284;SDS011;11311;52.192;20.900;2022-08-01T07:31:51;5.63;;;3.53;;
22284;SDS011;11311;52.192;20.900;2022-08-01T07:34:21;7.15;;;2.83;;
22284;SDS011;11311;52.192;20.900;2022-08-01T07:36:50;2.63;;;2.35;;
22284;SDS011;11311;52.192;20.900;2022-08-01T07:39:19;3.05;;;2.75;;
22284;SDS011;11311;52.192;20.900;2022-08-01T07:41:48;9.27;;;2.67;;
22284;SDS011;11311;52.192;20.900;2022-08-01T07:44:33;9.80;;;3.03;;
22284;SDS011;11311;52.192;20.900;2022-08-01T07:47:04;4.57;;;2.70;;
22284;SDS011;11311;52.192;20.900;2022-08-01T07:49:33;7.63;;;3.75;;
22284;SDS011;11311;52.192;20.900;2022-08-01T07:52:06;2.55;;;2.13;;
22284;SDS011;11311;52.192;20.900;2022-08-01T07:54:35;4.97;;;2.10;;
22284;SDS011;11311;52.192;20.900;2022-08-01T07:57:04;2.83;;;2.05;;
22284;SDS011;11311;52.192;20.900;2022-08-01T07:59:34;5.03;;;2.17;;
22284;SDS011;11311;52.192;20.900;2022-08-01T08:02:04;2.13;;;1.90;;
22284;SDS011;11311;52.192;20.900;2022-08-01T08:07:02;3.85;;;2.35;;
22284;SDS011;11311;52.192;20.900;2022-08-01T08:09:31;1.80;;;1.70;;
22284;SDS011;11311;52.192;20.900;2022-08-01T08:12:04;6.32;;;1.80;;
22284;SDS011;11311;52.192;20.900;2022-08-01T08:14:34;5.65;;;2.63;;
22284;SDS011;11311;52.192;20.900;2022-08-01T08:17:05;3.53;;;1.75;;
22284;SDS011;11311;52.192;20.900;2022-08-01T08:19:33;1.85;;;1.75;;
22284;SDS011;11311;52.192;20.900;2022-08-01T08:22:05;4.78;;;2.67;;
22284;SDS011;11311;52.192;20.900;2022-08-01T08:24:36;3.05;;;1.80;;
22284;SDS011;11311;52.192;20.900;2022-08-01T08:27:13;3.13;;;2.00;;
22284;SDS011;11311;52.192;20.900;2022-08-01T08:29:42;7.07;;;2.67;;
22284;SDS011;11311;52.192;20.900;2022-08-01T08:32:12;2.75;;;1.73;;
22284;SDS011;11311;52.192;20.900;2022-08-01T08:34:41;4.72;;;1.83;;
22284;SDS011;11311;52.192;20.900;2022-08-01T08:37:09;5.22;;;1.70;;
22284;SDS011;11311;52.192;20.900;2022-08-01T08:39:38;4.72;;;1.60;;
22284;SDS011;11311;52.192;20.900;2022-08-01T08:42:08;3.10;;;1.77;;
22284;SDS011;11311;52.192;20.900;2022-08-01T08:44:39;4.45;;;1.70;;
22284;SDS011;11311;52.192;20.900;2022-08-01T08:47:10;3.00;;;1.90;;
22284;SDS011;11311;52.192;20.900;2022-08-01T08:49:46;6.13;;;2.42;;
22284;SDS011;11311;52.192;20.900;2022-08-01T08:52:15;2.63;;;1.90;;
22284;SDS011;11311;52.192;20.900;2022-08-01T08:54:47;3.67;;;2.08;;
22284;SDS011;11311;52.192;20.900;2022-08-01T08:57:17;2.00;;;1.90;;
22284;SDS011;11311;52.192;20.900;2022-08-01T08:59:47;3.38;;;1.70;;
22284;SDS011;11311;52.192;20.900;2022-08-01T09:02:20;4.57;;;2.78;;
22284;SDS011;11311;52.192;20.900;2022-08-01T09:04:50;1.90;;;1.50;;
22284;SDS011;11311;52.192;20.900;2022-08-01T09:07:34;6.20;;;1.92;;
22284;SDS011;11311;52.192;20.900;2022-08-01T09:10:20;3.85;;;1.70;;
22284;SDS011;11311;52.192;20.900;2022-08-01T09:13:09;8.07;;;2.22;;
22284;SDS011;11311;52.192;20.900;2022-08-01T09:15:41;3.25;;;2.10;;
22284;SDS011;11311;52.192;20.900;2022-08-01T09:18:35;5.25;;;1.75;;
22284;SDS011;11311;52.192;20.900;2022-08-01T09:21:31;3.13;;;2.17;;
22284;SDS011;11311;52.192;20.900;2022-08-01T09:24:24;3.55;;;2.10;;
22284;SDS011;11311;52.192;20.900;2022-08-01T09:27:26;6.20;;;1.92;;
22284;SDS011;11311;52.192;20.900;2022-08-01T09:30:06;5.93;;;1.95;;
22284;SDS011;11311;52.192;20.900;2022-08-01T09:33:03;2.20;;;1.92;;
22284;SDS011;11311;52.192;20.900;2022-08-01T09:35:53;7.20;;;2.20;;
22284;SDS011;11311;52.192;20.900;2022-08-01T09:38:24;5.88;;;1.90;;
22284;SDS011;11311;52.192;20.900;2022-08-01T09:43:25;2.22;;;2.13;;
22284;SDS011;11311;52.192;20.900;2022-08-01T09:45:57;2.15;;;1.85;;
22284;SDS011;11311;52.192;20.900;2022-08-01T09:48:26;3.22;;;1.90;;
22284;SDS011;11311;52.192;20.900;2022-08-01T09:50:58;4.87;;;2.10;;
22284;SDS011;11311;52.192;20.900;2022-08-01T09:53:42;3.00;;;1.90;;
22284;SDS011;11311;52.192;20.900;2022-08-01T09:56:19;3.50;;;2.53;;
22284;SDS011;11311;52.192;20.900;2022-08-01T09:58:51;5.28;;;2.10;;
22284;SDS011;11311;52.192;20.900;2022-08-01T10:01:27;1.77;;;1.67;;
22284;SDS011;11311;52.192;20.900;2022-08-01T10:04:04;1.50;;;1.40;;
22284;SDS011;11311;52.192;20.900;2022-08-01T10:06:38;2.28;;;1.90;;
22284;SDS011;11311;52.192;20.900;2022-08-01T10:09:11;2.35;;;1.88;;
22284;SDS011;11311;52.192;20.900;2022-08-01T10:11:41;3.83;;;1.63;;
22284;SDS011;11311;52.192;20.900;2022-08-01T10:14:11;3.72;;;1.60;;
22284;SDS011;11311;52.192;20.900;2022-08-01T10:16:43;8.88;;;2.85;;
22284;SDS011;11311;52.192;20.900;2022-08-01T10:19:20;2.72;;;1.65;;
22284;SDS011;11311;52.192;20.900;2022-08-01T10:21:52;4.15;;;1.38;;
22284;SDS011;11311;52.192;20.900;2022-08-01T10:24:26;5.45;;;1.70;;
22284;SDS011;11311;52.192;20.900;2022-08-01T10:26:58;4.50;;;2.53;;
22284;SDS011;11311;52.192;20.900;2022-08-01T10:29:39;4.90;;;1.30;;
22284;SDS011;11311;52.192;20.900;2022-08-01T10:32:29;4.60;;;1.38;;
22284;SDS011;11311;52.192;20.900;2022-08-01T10:34:58;3.00;;;1.40;;
22284;SDS011;11311;52.192;20.900;2022-08-01T10:37:34;3.72;;;1.35;;
22284;SDS011;11311;52.192;20.900;2022-08-01T10:40:18;2.17;;;1.55;;
22284;SDS011;11311;52.192;20.900;2022-08-01T10:42:57;5.95;;;1.50;;
22284;SDS011;11311;52.192;20.900;2022-08-01T10:45:26;2.58;;;1.42;;
22284;SDS011;11311;52.192;20.900;2022-08-01T10:47:59;4.53;;;1.70;;
22284;SDS011;11311;52.192;20.900;2022-08-01T10:50:35;2.55;;;1.58;;
22284;SDS011;11311;52.192;20.900;2022-08-01T10:53:09;1.83;;;1.60;;
22284;SDS011;11311;52.192;20.900;2022-08-01T10:55:49;3.47;;;1.73;;
22284;SDS011;11311;52.192;20.900;2022-08-01T10:58:22;5.13;;;1.40;;
22284;SDS011;11311;52.192;20.900;2022-08-01T11:04:02;4.53;;;1.70;;
22284;SDS011;11311;52.192;20.900;2022-08-01T11:06:51;2.05;;;1.25;;
22284;SDS011;11311;52.192;20.900;2022-08-01T11:09:29;4.40;;;1.80;;
22284;SDS011;11311;52.192;20.900;2022-08-01T11:12:04;3.25;;;2.33;;
22284;SDS011;11311;52.192;20.900;2022-08-01T11:17:55;4.35;;;2.28;;
22284;SDS011;11311;52.192;20.900;2022-08-01T11:20:27;7.35;;;2.22;;
22284;SDS011;11311;52.192;20.900;2022-08-01T11:28:44;3.83;;;2.10;;
22284;SDS011;11311;52.192;20.900;2022-08-01T11:31:35;2.75;;;2.05;;
22284;SDS011;11311;52.192;20.900;2022-08-01T11:34:04;3.75;;;1.80;;
22284;SDS011;11311;52.192;20.900;2022-08-01T11:36:33;6.05;;;2.17;;
22284;SDS011;11311;52.192;20.900;2022-08-01T11:39:22;2.80;;;2.33;;
22284;SDS011;11311;52.192;20.900;2022-08-01T11:41:53;5.88;;;2.60;;
22284;SDS011;11311;52.192;20.900;2022-08-01T11:44:23;2.45;;;2.25;;
22284;SDS011;11311;52.192;20.900;2022-08-01T11:46:57;2.65;;;2.10;;
22284;SDS011;11311;52.192;20.900;2022-08-01T11:52:17;2.47;;;2.28;;
22284;SDS011;11311;52.192;20.900;2022-08-01T11:54:47;6.50;;;2.33;;
22284;SDS011;11311;52.192;20.900;2022-08-01T11:57:20;6.00;;;2.30;;
22284;SDS011;11311;52.192;20.900;2022-08-01T12:00:01;6.40;;;2.53;;
22284;SDS011;11311;52.192;20.900;2022-08-01T12:02:40;5.75;;;2.08;;
22284;SDS011;11311;52.192;20.900;2022-08-01T12:05:12;7.03;;;2.10;;
22284;SDS011;11311;52.192;20.900;2022-08-01T12:07:42;9.70;;;2.08;;
22284;SDS011;11311;52.192;20.900;2022-08-01T12:10:13;4.97;;;1.85;;
22284;SDS011;11311;52.192;20.900;2022-08-01T12:12:45;3.22;;;1.73;;
22284;SDS011;11311;52.192;20.900;2022-08-01T12:15:15;3.30;;;2.03;;
22284;SDS011;11311;52.192;20.900;2022-08-01T12:17:46;3.60;;;1.70;;
22284;SDS011;11311;52.192;20.900;2022-08-01T12:20:26;3.22;;;2.25;;
22284;SDS011;11311;52.192;20.900;2022-08-01T12:22:57;2.92;;;2.38;;
22284;SDS011;11311;52.192;20.900;2022-08-01T12:25:27;3.33;;;1.77;;
22284;SDS011;11311;52.192;20.900;2022-08-01T12:28:00;1.88;;;1.63;;
22284;SDS011;11311;52.192;20.900;2022-08-01T12:30:30;2.15;;;1.88;;
22284;SDS011;11311;52.192;20.900;2022-08-01T12:33:02;5.25;;;1.90;;
22284;SDS011;11311;52.192;20.900;2022-08-01T12:35:33;3.95;;;2.08;;
22284;SDS011;11311;52.192;20.900;2022-08-01T12:38:04;2.42;;;1.58;;
22284;SDS011;11311;52.192;20.900;2022-08-01T12:40:34;6.43;;;2.03;;
22284;SDS011;11311;52.192;20.900;2022-08-01T12:43:15;2.35;;;2.15;;
22284;SDS011;11311;52.192;20.900;2022-08-01T12:45:55;3.00;;;1.92;;
22284;SDS011;11311;52.192;20.900;2022-08-01T12:48:25;3.50;;;1.90;;
22284;SDS011;11311;52.192;20.900;2022-08-01T12:50:55;3.88;;;2.13;;
22284;SDS011;11311;52.192;20.900;2022-08-01T12:53:27;4.13;;;2.00;;
22284;SDS011;11311;52.192;20.900;2022-08-01T12:56:07;3.85;;;1.85;;
22284;SDS011;11311;52.192;20.900;2022-08-01T12:58:39;2.60;;;2.20;;
22284;SDS011;11311;52.192;20.900;2022-08-01T13:01:08;2.33;;;1.70;;
22284;SDS011;11311;52.192;20.900;2022-08-01T13:03:39;3.85;;;1.70;;
22284;SDS011;11311;52.192;20.900;2022-08-01T13:06:11;4.20;;;2.05;;
22284;SDS011;11311;52.192;20.900;2022-08-01T13:08:43;3.95;;;2.42;;
22284;SDS011;11311;52.192;20.900;2022-08-01T13:11:12;5.50;;;1.55;;
22284;SDS011;11311;52.192;20.900;2022-08-01T13:13:45;4.10;;;2.05;;
22284;SDS011;11311;52.192;20.900;2022-08-01T13:16:16;2.42;;;1.45;;
22284;SDS011;11311;52.192;20.900;2022-08-01T13:19:04;4.97;;;1.80;;
22284;SDS011;11311;52.192;20.900;2022-08-01T13:21:34;1.40;;;1.30;;
22284;SDS011;11311;52.192;20.900;2022-08-01T13:24:24;1.60;;;1.42;;
22284;SDS011;11311;52.192;20.900;2022-08-01T13:26:55;4.65;;;2.17;;
22284;SDS011;11311;52.192;20.900;2022-08-01T13:29:32;2.72;;;1.40;;
22284;SDS011;11311;52.192;20.900;2022-08-01T13:32:13;2.30;;;1.38;;
22284;SDS011;11311;52.192;20.900;2022-08-01T13:35:00;2.03;;;1.50;;
22284;SDS011;11311;52.192;20.900;2022-08-01T13:37:29;2.35;;;1.60;;
22284;SDS011;11311;52.192;20.900;2022-08-01T13:39:58;5.18;;;1.90;;
22284;SDS011;11311;52.192;20.900;2022-08-01T13:42:27;2.73;;;1.53;;
22284;SDS011;11311;52.192;20.900;2022-08-01T13:44:58;3.65;;;1.60;;
22284;SDS011;11311;52.192;20.900;2022-08-01T13:47:28;6.45;;;1.60;;
22284;SDS011;11311;52.192;20.900;2022-08-01T13:49:58;4.38;;;1.27;;
22284;SDS011;11311;52.192;20.900;2022-08-01T13:52:30;4.97;;;2.20;;
22284;SDS011;11311;52.192;20.900;2022-08-01T13:54:58;4.80;;;1.52;;
22284;SDS011;11311;52.192;20.900;2022-08-01T13:57:28;2.65;;;1.30;;
22284;SDS011;11311;52.192;20.900;2022-08-01T14:00:05;1.40;;;1.30;;
22284;SDS011;11311;52.192;20.900;2022-08-01T14:02:38;2.40;;;1.20;;
22284;SDS011;11311;52.192;20.900;2022-08-01T14:05:07;5.10;;;1.67;;
22284;SDS011;11311;52.192;20.900;2022-08-01T14:07:36;1.67;;;1.20;;
22284;SDS011;11311;52.192;20.900;2022-08-01T14:10:07;2.53;;;1.40;;
22284;SDS011;11311;52.192;20.900;2022-08-01T14:12:46;3.67;;;1.33;;
22284;SDS011;11311;52.192;20.900;2022-08-01T14:15:16;2.60;;;1.63;;
22284;SDS011;11311;52.192;20.900;2022-08-01T14:18:04;8.80;;;1.42;;
22284;SDS011;11311;52.192;20.900;2022-08-01T14:20:36;3.72;;;1.10;;
22284;SDS011;11311;52.192;20.900;2022-08-01T14:23:05;0.82;;;0.82;;
22284;SDS011;11311;52.192;20.900;2022-08-01T14:25:35;4.63;;;1.83;;
22284;SDS011;11311;52.192;20.900;2022-08-01T14:28:25;6.38;;;2.05;;
22284;SDS011;11311;52.192;20.900;2022-08-01T14:30:57;2.20;;;1.40;;
22284;SDS011;11311;52.192;20.900;2022-08-01T14:33:26;3.17;;;1.63;;
22284;SDS011;11311;52.192;20.900;2022-08-01T14:35:55;3.75;;;1.80;;
22284;SDS011;11311;52.192;20.900;2022-08-01T14:38:32;6.47;;;1.98;;
22284;SDS011;11311;52.192;20.900;2022-08-01T14:41:01;2.47;;;1.23;;
22284;SDS011;11311;52.192;20.900;2022-08-01T14:43:31;2.83;;;1.40;;
22284;SDS011;11311;52.192;20.900;2022-08-01T14:46:01;1.73;;;1.60;;
22284;SDS011;11311;52.192;20.900;2022-08-01T14:48:31;4.30;;;1.50;;
22284;SDS011;11311;52.192;20.900;2022-08-01T14:51:00;2.73;;;1.60;;
22284;SDS011;11311;52.192;20.900;2022-08-01T14:53:30;5.25;;;1.88;;
22284;SDS011;11311;52.192;20.900;2022-08-01T14:56:02;2.75;;;1.48;;
22284;SDS011;11311;52.192;20.900;2022-08-01T14:58:31;6.13;;;1.58;;
22284;SDS011;11311;52.192;20.900;2022-08-01T15:01:00;3.85;;;1.58;;
22284;SDS011;11311;52.192;20.900;2022-08-01T15:03:31;5.13;;;1.90;;
22284;SDS011;11311;52.192;20.900;2022-08-01T15:06:00;3.45;;;1.50;;
22284;SDS011;11311;52.192;20.900;2022-08-01T15:08:29;4.27;;;1.53;;
22284;SDS011;11311;52.192;20.900;2022-08-01T15:10:59;5.07;;;1.40;;
22284;SDS011;11311;52.192;20.900;2022-08-01T15:15:57;3.17;;;1.70;;
22284;SDS011;11311;52.192;20.900;2022-08-01T15:18:27;2.35;;;1.27;;
22284;SDS011;11311;52.192;20.900;2022-08-01T15:21:00;3.30;;;2.05;;
22284;SDS011;11311;52.192;20.900;2022-08-01T15:23:28;4.78;;;1.73;;
22284;SDS011;11311;52.192;20.900;2022-08-01T15:25:57;5.93;;;1.30;;
22284;SDS011;11311;52.192;20.900;2022-08-01T15:28:26;6.90;;;2.13;;